Darya Jyoti — VRGM9 — position and weather

sailwx.info

Track history (hours):
 
Tides and Currents Weather Stations Pressure Air Temp Water Temp Dewpoint Dewpoint Depression Visibility Wind Speed Wind Dir Waves Ship Positions

Darya Jyoti

Last reported at 2016-Aug-20 11:10 UTC. Time now 2016-Aug-26 06:47 UTC.
Position N 01°55' E 102°19'.

Length 229 m; draft 14.7 m.

Type: Cargo ship. MMSI: 477742700.

Date/timePositionNaut miles runAvg speedWind from/ knotsBaromVisibWave heightAir tempDewpointWater temp
2016-Aug-20 11:10N 01°55' E 102°19'711.1
2016-Aug-20 10:33N 01°51' E 102°25'1211.9
2016-Aug-20 09:32N 01°46' E 102°36'82 9.1
2016-Aug-20 00:33N 01°11' E 103°50'6 6.5
2016-Aug-19 23:33N 01°14' E 103°56'3 2.5
2016-Aug-19 22:10N 01°17' E 103°58'0 0.0
2016-Aug-19 21:04N 01°17' E 103°58'0 0.0
2016-Aug-19 20:16N 01°17' E 103°58'0 0.0
2016-Aug-19 18:16N 01°17' E 103°58'0 0.1
2016-Aug-19 14:17N 01°17' E 103°58'0 0.0
2016-Aug-19 12:29N 01°17' E 103°58'0 0.0
2016-Aug-19 11:16N 01°17' E 103°58'0 0.2
2016-Aug-19 10:29N 01°17' E 103°58'0 0.2
2016-Aug-19 09:31N 01°17' E 103°58'0 0.1
2016-Aug-19 08:32N 01°17' E 103°58'0 0.0
2016-Aug-19 07:31N 01°17' E 103°58'0 0.0
2016-Aug-19 06:28N 01°17' E 103°58'0 0.0
2016-Aug-19 05:31N 01°17' E 103°58'0 0.1
2016-Aug-19 04:29N 01°17' E 103°58'0 0.1
2016-Aug-19 03:33N 01°17' E 103°58'1 1.5
2016-Aug-19 02:33N 01°16' E 103°60'6 5.7
2016-Aug-19 01:33N 01°16' E 104°06'  
Track history (hours):
 
Tides and Currents Weather Stations Pressure Air Temp Water Temp Dewpoint Dewpoint Depression Visibility Wind Speed Wind Dir Waves Ship Positions

Darya Jyoti

Last reported at 2016-Aug-20 11:10 UTC. Time now 2016-Aug-26 06:47 UTC.
Position N 01°55' E 102°19'.

Length 229 m; draft 14.7 m.

Type: Cargo ship. MMSI: 477742700.

Date/timePositionNaut miles runAvg speedWind from/ knotsBaromVisibWave heightAir tempDewpointWater temp
2016-Aug-20 11:10N 01°55' E 102°19'711.1
2016-Aug-20 10:33N 01°51' E 102°25'1211.9
2016-Aug-20 09:32N 01°46' E 102°36'82 9.1
2016-Aug-20 00:33N 01°11' E 103°50'6 6.5
2016-Aug-19 23:33N 01°14' E 103°56'3 2.5
2016-Aug-19 22:10N 01°17' E 103°58'0 0.0
2016-Aug-19 21:04N 01°17' E 103°58'0 0.0
2016-Aug-19 20:16N 01°17' E 103°58'0 0.0
2016-Aug-19 18:16N 01°17' E 103°58'0 0.1
2016-Aug-19 14:17N 01°17' E 103°58'0 0.0
2016-Aug-19 12:29N 01°17' E 103°58'0 0.0
2016-Aug-19 11:16N 01°17' E 103°58'0 0.2
2016-Aug-19 10:29N 01°17' E 103°58'0 0.2
2016-Aug-19 09:31N 01°17' E 103°58'0 0.1
2016-Aug-19 08:32N 01°17' E 103°58'0 0.0
2016-Aug-19 07:31N 01°17' E 103°58'0 0.0
2016-Aug-19 06:28N 01°17' E 103°58'0 0.0
2016-Aug-19 05:31N 01°17' E 103°58'0 0.1
2016-Aug-19 04:29N 01°17' E 103°58'0 0.1
2016-Aug-19 03:33N 01°17' E 103°58'1 1.5
2016-Aug-19 02:33N 01°16' E 103°60'6 5.7
2016-Aug-19 01:33N 01°16' E 104°06'  

Dump ship's entire track history